Time;durP1;ratioP1;P1;durP2;ratioP2;P2;SDS_P1;SDS_P2;PMS_P1;PMS_P2;Temp;Humidity;BMP_temperature;BMP_pressure;BME280_temperature;BME280_humidity;BME280_pressure;Samples;Min_cycle;Max_cycle;Signal;HPM_P1;HPM_P2
2023/12/26 00:01:27;;;;;;;;;;;;;;;15.54;49.17;101169.66;4099587;29;19927;-59
2023/12/26 00:03:29;;;;;;;;;;;;;;;15.54;48.98;101155.53;4099884;29;19970;-59
2023/12/26 00:05:30;;;;;;;;;;;;;;;15.54;48.74;101158.19;4099849;29;19922;-59
2023/12/26 00:07:32;;;;;;;;;;;;;;;15.54;48.88;101171.44;4099978;29;19922;-58
2023/12/26 00:09:33;;;;;;;;;;;;;;;15.52;49.00;101158.25;4099884;29;19997;-59
2023/12/26 00:11:40;;;;;;;;;;;;;;;15.51;48.80;101143.28;4099691;29;19949;-59
2023/12/26 00:13:41;;;;;;;;;;;;;;;15.51;49.17;101150.41;4099731;28;19928;-59
2023/12/26 00:15:43;;;;;;;;;;;;;;;15.51;48.83;101153.06;4099260;29;19949;-59
2023/12/26 00:17:45;;;;;;;;;;;;;;;15.49;48.86;101153.09;4082724;29;19985;-59
2023/12/26 00:19:47;;;;;;;;;;;;;;;15.49;48.86;101143.38;4099376;28;19948;-59
2023/12/26 00:21:48;;;;;;;;;;;;;;;15.51;48.80;101145.09;4099292;29;19966;-60
2023/12/26 00:23:50;;;;;;;;;;;;;;;15.52;48.94;101144.13;4099470;29;19922;-59
2023/12/26 00:25:52;;;;;;;;;;;;;;;15.50;48.56;101144.22;4099664;29;19985;-59
2023/12/26 00:27:54;;;;;;;;;;;;;;;15.51;48.71;101148.59;4099546;29;20317;-59
2023/12/26 00:29:55;;;;;;;;;;;;;;;15.51;48.74;101142.44;4099742;29;19922;-59
2023/12/26 00:31:57;;;;;;;;;;;;;;;15.52;49.01;101146.78;4099342;29;20386;-59
2023/12/26 00:33:59;;;;;;;;;;;;;;;15.52;48.78;101144.13;4082297;29;19927;-59
2023/12/26 00:36:01;;;;;;;;;;;;;;;15.52;48.96;101141.47;4099649;29;19922;-59
2023/12/26 00:38:03;;;;;;;;;;;;;;;15.52;48.94;101138.84;4099319;29;20360;-58
2023/12/26 00:40:05;;;;;;;;;;;;;;;15.52;48.76;101141.47;4099559;29;19922;-57
2023/12/26 00:42:06;;;;;;;;;;;;;;;15.52;48.96;101136.19;4099291;29;20287;-59
2023/12/26 00:44:13;;;;;;;;;;;;;;;15.51;48.88;101129.19;4099473;29;19935;-58
2023/12/26 00:46:15;;;;;;;;;;;;;;;15.48;48.94;101127.53;4098811;29;19922;-60
2023/12/26 00:48:16;;;;;;;;;;;;;;;15.47;48.76;101124.03;4099549;29;19922;-59
2023/12/26 00:50:18;;;;;;;;;;;;;;;15.48;48.99;101125.75;4099403;29;19929;-58
2023/12/26 00:52:20;;;;;;;;;;;;;;;15.49;48.68;101118.63;4099432;29;19930;-59
2023/12/26 00:54:21;;;;;;;;;;;;;;;15.49;48.58;101116.88;4099299;29;19973;-58
2023/12/26 00:56:23;;;;;;;;;;;;;;;15.48;48.75;101127.53;4099383;29;19922;-58
2023/12/26 00:58:24;;;;;;;;;;;;;;;15.48;48.98;101115.16;4099298;29;19922;-59
2023/12/26 01:00:26;;;;;;;;;;;;;;;15.47;48.61;101113.44;4099018;29;19929;-60
2023/12/26 01:02:28;;;;;;;;;;;;;;;15.47;48.86;101124.03;4099316;29;19929;-59
2023/12/26 01:04:30;;;;;;;;;;;;;;;15.47;48.50;101129.31;4099326;29;20025;-59
2023/12/26 01:06:32;;;;;;;;;;;;;;;15.48;48.81;101132.81;4099249;29;19922;-59
2023/12/26 01:08:33;;;;;;;;;;;;;;;15.49;48.80;101126.59;4082124;29;19923;-59
2023/12/26 01:10:35;;;;;;;;;;;;;;;15.48;48.63;101133.69;4099451;29;19945;-58
2023/12/26 01:12:36;;;;;;;;;;;;;;;15.48;48.74;101123.09;4099050;28;19997;-59
2023/12/26 01:14:41;;;;;;;;;;;;;;;15.47;48.78;101118.72;4098951;29;19994;-58
2023/12/26 01:16:45;;;;;;;;;;;;;;;15.47;48.61;101121.38;4099214;29;20382;-58
2023/12/26 01:18:46;;;;;;;;;;;;;;;15.47;48.75;101123.19;4099077;29;19977;-59
2023/12/26 01:20:48;;;;;;;;;;;;;;;15.48;48.85;101122.22;4099304;29;19929;-59
2023/12/26 01:22:50;;;;;;;;;;;;;;;15.48;48.58;101123.09;4099032;29;19926;-59
2023/12/26 01:24:52;;;;;;;;;;;;;;;15.48;48.79;101125.75;4082033;29;20009;-59
2023/12/26 01:26:53;;;;;;;;;;;;;;;15.48;48.50;101127.53;4099482;29;19926;-59
2023/12/26 01:28:55;;;;;;;;;;;;;;;15.48;48.52;101128.41;4098905;29;19922;-59
2023/12/26 01:30:56;;;;;;;;;;;;;;;15.49;48.57;101130.13;4099324;29;19930;-60
2023/12/26 01:32:58;;;;;;;;;;;;;;;15.48;48.55;101123.09;4101456;28;19922;-59
2023/12/26 01:35:00;;;;;;;;;;;;;;;15.50;48.70;101128.31;4101681;29;19922;-59
2023/12/26 01:37:02;;;;;;;;;;;;;;;15.50;48.54;101125.66;4102175;29;19922;-59
2023/12/26 01:39:03;;;;;;;;;;;;;;;15.51;48.91;101134.50;4102156;29;20328;-59
2023/12/26 01:41:05;;;;;;;;;;;;;;;15.49;48.49;101129.25;4102025;29;20412;-59
2023/12/26 01:43:07;;;;;;;;;;;;;;;15.50;48.67;101138.91;4101879;29;19945;-60
2023/12/26 01:45:08;;;;;;;;;;;;;;;15.49;48.71;101129.25;4101883;29;20400;-59
2023/12/26 01:47:12;;;;;;;;;;;;;;;15.48;48.58;101130.19;4101655;29;19945;-59
2023/12/26 01:49:13;;;;;;;;;;;;;;;15.48;48.59;101124.88;4101923;29;19977;-61
2023/12/26 01:51:16;;;;;;;;;;;;;;;15.47;48.71;101129.31;4101850;29;20396;-58
2023/12/26 01:53:17;;;;;;;;;;;;;;;15.49;48.60;101138.06;4101851;29;20343;-60
2023/12/26 01:55:20;;;;;;;;;;;;;;;15.49;48.81;101132.78;4101630;29;19929;-59
2023/12/26 01:57:21;;;;;;;;;;;;;;;15.48;48.74;101138.13;4084425;29;19962;-60
2023/12/26 01:59:23;;;;;;;;;;;;;;;15.48;48.71;101139.00;4101589;29;20301;-60
2023/12/26 02:01:25;;;;;;;;;;;;;;;15.48;48.72;101136.34;4101994;29;19922;-58
2023/12/26 02:03:26;;;;;;;;;;;;;;;15.48;48.90;101132.81;4084760;29;20377;-57
2023/12/26 02:05:28;;;;;;;;;;;;;;;15.47;48.80;101131.97;4101658;29;19928;-60
2023/12/26 02:07:30;;;;;;;;;;;;;;;15.48;48.86;101135.47;4101562;29;19962;-59
2023/12/26 02:09:32;;;;;;;;;;;;;;;15.46;48.84;101132.91;4101451;29;19922;-60
2023/12/26 02:11:34;;;;;;;;;;;;;;;15.48;48.45;101135.47;4101234;29;20389;-59
2023/12/26 02:13:36;;;;;;;;;;;;;;;15.47;48.61;101134.63;4101501;28;19922;-59
2023/12/26 02:15:38;;;;;;;;;;;;;;;15.48;48.52;101133.69;4101338;29;19958;-59
2023/12/26 02:17:41;;;;;;;;;;;;;;;15.47;48.76;101139.94;4101595;29;19966;-60
2023/12/26 02:19:42;;;;;;;;;;;;;;;15.47;48.80;101147.88;4101150;29;19929;-60
2023/12/26 02:21:44;;;;;;;;;;;;;;;15.47;48.45;101147.88;4084505;29;19974;-60
2023/12/26 02:23:52;;;;;;;;;;;;;;;15.48;48.53;101154.03;4101156;29;19964;-61
2023/12/26 02:25:54;;;;;;;;;;;;;;;15.49;48.77;101143.38;4101517;29;20377;-60
2023/12/26 02:27:57;;;;;;;;;;;;;;;15.49;48.63;101153.97;4101082;29;19960;-60
2023/12/26 02:30:00;;;;;;;;;;;;;;;15.48;48.79;101156.69;4101271;29;19926;-59
2023/12/26 02:32:02;;;;;;;;;;;;;;;15.49;48.64;101155.75;4100985;29;19922;-58
2023/12/26 02:34:04;;;;;;;;;;;;;;;15.49;48.88;101161.06;4101266;29;19953;-58
2023/12/26 02:36:06;;;;;;;;;;;;;;;15.52;48.70;101165.34;4101364;29;19923;-59
2023/12/26 02:38:08;;;;;;;;;;;;;;;15.51;48.83;101168.94;4101073;29;20338;-57
2023/12/26 02:40:10;;;;;;;;;;;;;;;15.49;48.75;101161.94;4101464;29;19922;-60
2023/12/26 02:42:12;;;;;;;;;;;;;;;15.49;48.68;101153.97;4100988;29;19923;-60
2023/12/26 02:44:13;;;;;;;;;;;;;;;15.49;48.67;101155.75;4100442;28;19922;-60
2023/12/26 02:46:15;;;;;;;;;;;;;;;15.48;48.81;101156.69;4100795;29;19941;-60
2023/12/26 02:48:16;;;;;;;;;;;;;;;15.48;48.86;101154.91;4083660;29;19966;-60
2023/12/26 02:50:19;;;;;;;;;;;;;;;15.48;48.88;101146.09;4101112;29;19969;-60
2023/12/26 02:52:20;;;;;;;;;;;;;;;15.49;48.75;101151.31;4100974;29;20533;-60
2023/12/26 02:54:22;;;;;;;;;;;;;;;15.47;48.59;101153.19;4100906;29;20017;-60
2023/12/26 02:56:23;;;;;;;;;;;;;;;15.46;48.65;101154.13;4100348;29;19929;-60
2023/12/26 02:58:25;;;;;;;;;;;;;;;15.47;48.88;101152.34;4100854;29;19997;-60
2023/12/26 03:00:27;;;;;;;;;;;;;;;15.47;48.42;101155.00;4100773;29;19922;-60
2023/12/26 03:02:28;;;;;;;;;;;;;;;15.46;48.83;101151.47;4100727;29;20353;-60
2023/12/26 03:04:30;;;;;;;;;;;;;;;15.45;48.89;101149.75;4100694;29;20001;-59
2023/12/26 03:06:31;;;;;;;;;;;;;;;15.47;48.71;101150.53;4100789;29;20397;-60
2023/12/26 03:08:33;;;;;;;;;;;;;;;15.47;48.68;101149.69;4100759;29;20279;-60
2023/12/26 03:10:35;;;;;;;;;;;;;;;15.47;48.68;101147.03;4083015;29;19933;-60
2023/12/26 03:12:37;;;;;;;;;;;;;;;15.46;48.83;101153.28;4100571;28;19981;-60
2023/12/26 03:14:39;;;;;;;;;;;;;;;15.46;48.86;101153.28;4100509;29;19922;-59
2023/12/26 03:16:40;;;;;;;;;;;;;;;15.45;48.80;101149.75;4100520;29;19962;-60
2023/12/26 03:18:42;;;;;;;;;;;;;;;15.45;48.74;101144.44;4100649;29;20347;-60
2023/12/26 03:20:44;;;;;;;;;;;;;;;15.46;48.67;101154.13;4100547;29;20527;-60
2023/12/26 03:22:46;;;;;;;;;;;;;;;15.45;48.71;101165.66;4100271;29;20309;-59
2023/12/26 03:24:47;;;;;;;;;;;;;;;15.47;48.75;101152.34;4099999;29;20010;-60
2023/12/26 03:26:49;;;;;;;;;;;;;;;15.45;48.70;101160.34;4100241;29;19922;-60
2023/12/26 03:28:50;;;;;;;;;;;;;;;15.45;48.98;101157.69;4100395;29;20370;-60
2023/12/26 03:30:52;;;;;;;;;;;;;;;15.46;48.80;101162.06;4100291;29;19938;-60
2023/12/26 03:32:54;;;;;;;;;;;;;;;15.45;48.71;101163.00;4100541;29;20013;-59
2023/12/26 03:34:56;;;;;;;;;;;;;;;15.46;48.80;101156.78;4100273;29;19946;-61
2023/12/26 03:36:57;;;;;;;;;;;;;;;15.46;48.74;101155.91;4100080;29;19932;-60
2023/12/26 03:38:59;;;;;;;;;;;;;;;15.45;48.86;101159.50;4099910;29;19928;-59
2023/12/26 03:41:00;;;;;;;;;;;;;;;15.44;48.83;101161.31;4100145;29;19926;-60
2023/12/26 03:43:03;;;;;;;;;;;;;;;15.44;48.80;101145.41;4100197;29;19922;-59
2023/12/26 03:45:04;;;;;;;;;;;;;;;15.45;48.82;101154.19;4100090;29;19929;-59
2023/12/26 03:47:06;;;;;;;;;;;;;;;15.45;48.73;101148.91;4100110;29;20005;-59
2023/12/26 03:49:08;;;;;;;;;;;;;;;15.43;48.78;101138.38;4100061;29;19922;-59
2023/12/26 03:51:09;;;;;;;;;;;;;;;15.43;48.78;101141.03;4100127;29;19922;-59
2023/12/26 03:53:11;;;;;;;;;;;;;;;15.44;48.66;101137.44;4099827;29;19981;-59
2023/12/26 03:55:14;;;;;;;;;;;;;;;15.44;49.03;101137.44;4098758;28;19923;-59
2023/12/26 03:57:16;;;;;;;;;;;;;;;15.43;48.95;101141.03;4099725;29;19926;-59
2023/12/26 03:59:17;;;;;;;;;;;;;;;15.43;48.88;101137.50;4099988;29;20000;-58
2023/12/26 04:01:19;;;;;;;;;;;;;;;15.44;48.82;101148.06;4099841;29;20065;-58
2023/12/26 04:03:20;;;;;;;;;;;;;;;15.44;48.84;101157.78;4099770;29;20009;-58
2023/12/26 04:05:22;;;;;;;;;;;;;;;15.44;48.98;101160.44;4099864;29;20017;-58
2023/12/26 04:07:23;;;;;;;;;;;;;;;15.43;48.78;101154.28;4099786;29;19922;-58
2023/12/26 04:09:25;;;;;;;;;;;;;;;15.35;48.97;101143.19;4099575;29;20655;-58
2023/12/26 04:11:26;;;;;;;;;;;;;;;15.44;48.76;101158.66;4099537;29;20021;-59
2023/12/26 04:13:28;;;;;;;;;;;;;;;15.45;48.63;101163.00;4099622;28;19949;-58
2023/12/26 04:15:30;;;;;;;;;;;;;;;15.44;48.67;101163.97;4099646;29;20270;-58
2023/12/26 04:17:31;;;;;;;;;;;;;;;15.44;49.12;101163.97;4099688;29;19929;-58
2023/12/26 04:19:33;;;;;;;;;;;;;;;15.44;48.98;101171.91;4099486;29;20017;-58
2023/12/26 04:21:35;;;;;;;;;;;;;;;15.44;48.88;101174.56;4099830;29;19997;-58
2023/12/26 04:23:36;;;;;;;;;;;;;;;15.44;48.98;101171.91;4099290;29;19926;-58
2023/12/26 04:25:38;;;;;;;;;;;;;;;15.45;48.83;101183.34;4099440;29;19965;-58
2023/12/26 04:27:39;;;;;;;;;;;;;;;15.45;49.03;101183.34;4099567;29;19922;-57
2023/12/26 04:29:41;;;;;;;;;;;;;;;15.44;49.02;101181.63;4099564;29;19976;-59
2023/12/26 04:31:43;;;;;;;;;;;;;;;15.45;48.74;101180.72;4099690;29;20424;-59
2023/12/26 04:33:45;;;;;;;;;;;;;;;15.45;48.86;101193.97;4099451;29;20381;-59
2023/12/26 04:35:46;;;;;;;;;;;;;;;15.44;49.05;101195.75;4099145;29;19977;-60
2023/12/26 04:37:48;;;;;;;;;;;;;;;15.44;49.08;101190.47;4099140;29;19923;-59
2023/12/26 04:39:50;;;;;;;;;;;;;;;15.45;49.09;101189.50;4099435;29;19922;-58
2023/12/26 04:41:51;;;;;;;;;;;;;;;15.44;49.09;101201.06;4099477;29;19968;-58
2023/12/26 04:43:53;;;;;;;;;;;;;;;15.44;49.15;101193.13;4099453;29;20017;-59
2023/12/26 04:45:54;;;;;;;;;;;;;;;15.45;48.97;101196.59;4099374;29;19922;-60
2023/12/26 04:47:56;;;;;;;;;;;;;;;15.43;49.08;101191.38;4099481;29;20062;-59
2023/12/26 04:49:58;;;;;;;;;;;;;;;15.44;49.12;101202.84;4099394;29;19926;-59
2023/12/26 04:52:00;;;;;;;;;;;;;;;15.42;49.13;101194.97;4098997;29;20017;-58
2023/12/26 04:54:02;;;;;;;;;;;;;;;15.43;48.83;101195.81;4099383;29;20393;-58
2023/12/26 04:56:03;;;;;;;;;;;;;;;15.42;49.17;101194.97;4099220;29;20013;-59
2023/12/26 04:58:05;;;;;;;;;;;;;;;15.43;49.06;101193.16;4099216;29;19949;-58
2023/12/26 05:00:07;;;;;;;;;;;;;;;15.43;49.13;101190.50;4099337;29;19927;-59
2023/12/26 05:02:09;;;;;;;;;;;;;;;15.43;48.98;101196.69;4099464;29;20370;-58
2023/12/26 05:04:10;;;;;;;;;;;;;;;15.42;49.25;101199.41;4099218;29;19929;-59
2023/12/26 05:06:12;;;;;;;;;;;;;;;15.42;49.13;101196.75;4098848;28;19927;-59
2023/12/26 05:08:14;;;;;;;;;;;;;;;15.41;49.19;101198.56;4102272;29;19922;-59
2023/12/26 05:10:16;;;;;;;;;;;;;;;15.41;49.29;101203.84;4102343;29;19931;-59
2023/12/26 05:12:17;;;;;;;;;;;;;;;15.41;49.13;101205.66;4102509;29;20009;-59
2023/12/26 05:14:20;;;;;;;;;;;;;;;15.42;49.25;101207.34;4102206;28;19926;-59
2023/12/26 05:16:22;;;;;;;;;;;;;;;15.40;49.28;101215.38;4102213;29;19954;-59
2023/12/26 05:18:23;;;;;;;;;;;;;;;15.41;49.13;101210.97;4085434;29;19966;-59
2023/12/26 05:20:25;;;;;;;;;;;;;;;15.40;49.13;101218.03;4101981;29;19942;-59
2023/12/26 05:22:32;;;;;;;;;;;;;;;15.41;49.29;101209.16;4102396;29;19922;-58
2023/12/26 05:24:34;;;;;;;;;;;;;;;15.42;49.19;101217.94;4102354;29;19953;-60
2023/12/26 05:26:51;;;;;;;;;;;;;;;15.41;49.00;101222.41;4102186;29;19946;-59
2023/12/26 05:28:53;;;;;;;;;;;;;;;15.43;49.27;101222.31;4085472;29;20286;-59
2023/12/26 05:30:54;;;;;;;;;;;;;;;15.42;49.29;101223.25;4102051;29;19958;-59
2023/12/26 05:32:56;;;;;;;;;;;;;;;15.42;49.34;101218.81;4101990;29;19922;-59
2023/12/26 05:34:58;;;;;;;;;;;;;;;15.42;49.07;101226.78;4101784;29;19960;-59
2023/12/26 05:37:00;;;;;;;;;;;;;;;15.41;49.33;101230.34;4101918;29;19922;-59
2023/12/26 05:39:02;;;;;;;;;;;;;;;15.42;49.17;101241.81;4102188;29;20082;-60
2023/12/26 05:41:04;;;;;;;;;;;;;;;15.42;49.42;101242.69;4102024;29;19947;-58
2023/12/26 05:43:06;;;;;;;;;;;;;;;15.44;49.27;101245.25;4101980;29;20095;-59
2023/12/26 05:45:07;;;;;;;;;;;;;;;15.45;49.30;101249.63;4102274;29;20393;-60
2023/12/26 05:47:09;;;;;;;;;;;;;;;15.45;48.98;101258.41;4102038;29;20378;-60
2023/12/26 05:49:11;;;;;;;;;;;;;;;15.43;49.34;101255.00;4101493;29;20404;-59
2023/12/26 05:51:13;;;;;;;;;;;;;;;15.44;49.26;101259.38;4101770;29;19926;-59
2023/12/26 05:53:15;;;;;;;;;;;;;;;15.44;49.44;101259.38;4101938;29;19957;-59
2023/12/26 05:55:16;;;;;;;;;;;;;;;15.44;49.37;101263.81;4101823;29;19922;-59
2023/12/26 05:57:18;;;;;;;;;;;;;;;15.43;49.45;101264.72;4101692;29;19977;-59
2023/12/26 05:59:19;;;;;;;;;;;;;;;15.42;49.23;101263.88;4101917;29;19930;-59
2023/12/26 06:01:21;;;;;;;;;;;;;;;15.41;49.25;101261.31;4101812;29;20345;-59
2023/12/26 06:03:22;;;;;;;;;;;;;;;15.42;49.27;101261.22;4101807;29;19973;-59
2023/12/26 06:05:24;;;;;;;;;;;;;;;15.43;49.24;101262.06;4101166;29;19922;-59
2023/12/26 06:07:26;;;;;;;;;;;;;;;15.43;49.45;101273.56;4101662;29;19994;-59
2023/12/26 06:09:27;;;;;;;;;;;;;;;15.42;49.29;101270.97;4101374;29;19922;-59
2023/12/26 06:11:29;;;;;;;;;;;;;;;15.41;49.35;101267.47;4101412;29;19977;-59
2023/12/26 06:13:30;;;;;;;;;;;;;;;15.41;49.54;101278.06;4101276;28;19923;-59
2023/12/26 06:15:32;;;;;;;;;;;;;;;15.42;49.39;101281.56;4101337;29;20385;-59
2023/12/26 06:17:36;;;;;;;;;;;;;;;15.43;49.54;101277.97;4101365;28;20005;-59
2023/12/26 06:19:37;;;;;;;;;;;;;;;15.42;49.49;101276.25;4100279;29;19926;-59
2023/12/26 06:21:39;;;;;;;;;;;;;;;15.42;49.49;101270.97;4101447;29;19922;-60
2023/12/26 06:23:41;;;;;;;;;;;;;;;15.42;49.17;101263.88;4101369;29;19922;-59
2023/12/26 06:25:44;;;;;;;;;;;;;;;15.41;49.56;101267.47;4101133;29;19950;-59
2023/12/26 06:27:46;;;;;;;;;;;;;;;15.41;49.32;101262.16;4101454;29;19923;-59
2023/12/26 06:29:48;;;;;;;;;;;;;;;15.43;49.54;101275.34;4101235;29;19932;-59
2023/12/26 06:31:50;;;;;;;;;;;;;;;15.41;49.74;101275.41;4101205;29;20271;-59
2023/12/26 06:33:51;;;;;;;;;;;;;;;15.42;49.61;101265.66;4100892;29;20366;-59
2023/12/26 06:35:53;;;;;;;;;;;;;;;15.44;49.61;101269.09;4101089;29;19926;-59
2023/12/26 06:37:55;;;;;;;;;;;;;;;15.41;49.38;101264.81;4101288;29;19923;-60
2023/12/26 06:39:56;;;;;;;;;;;;;;;15.41;49.49;101275.41;4101230;29;19945;-60
2023/12/26 06:41:58;;;;;;;;;;;;;;;15.41;49.60;101275.41;4100888;29;19936;-59
2023/12/26 06:44:00;;;;;;;;;;;;;;;15.43;49.66;101286.81;4101168;29;20013;-59
2023/12/26 06:46:03;;;;;;;;;;;;;;;15.44;49.66;101285.00;4100960;29;19929;-59
2023/12/26 06:48:05;;;;;;;;;;;;;;;15.44;49.39;101299.13;4100295;29;19978;-59
2023/12/26 06:50:06;;;;;;;;;;;;;;;15.46;49.42;101293.75;4101121;29;19938;-57
2023/12/26 06:52:08;;;;;;;;;;;;;;;15.44;49.51;101296.50;4100741;29;19953;-59
2023/12/26 06:54:09;;;;;;;;;;;;;;;15.43;49.44;101300.06;4100676;29;19923;-60
2023/12/26 06:56:11;;;;;;;;;;;;;;;15.44;49.48;101298.25;4100905;29;19945;-59
2023/12/26 06:58:12;;;;;;;;;;;;;;;15.44;49.68;101303.56;4100752;29;19922;-59
2023/12/26 07:00:17;;;;;;;;;;;;;;;15.45;49.58;101307.94;4100609;29;19922;-60
2023/12/26 07:02:19;;;;;;;;;;;;;;;15.43;49.66;101300.06;4100090;29;20301;-59
2023/12/26 07:04:20;;;;;;;;;;;;;;;15.43;49.64;101302.72;4100803;29;19981;-59
2023/12/26 07:06:23;;;;;;;;;;;;;;;15.44;49.71;101300.91;4100806;29;19922;-59
2023/12/26 07:08:24;;;;;;;;;;;;;;;15.43;49.73;101310.66;4100519;29;19926;-59
2023/12/26 07:10:26;;;;;;;;;;;;;;;15.43;49.55;101315.97;4083433;29;19923;-59
2023/12/26 07:12:28;;;;;;;;;;;;;;;15.43;49.51;101323.03;4100389;28;20029;-59
2023/12/26 07:14:30;;;;;;;;;;;;;;;15.44;49.65;101324.78;4083578;29;19934;-60
2023/12/26 07:16:33;;;;;;;;;;;;;;;15.43;49.74;101320.41;4100189;29;19922;-59
2023/12/26 07:18:34;;;;;;;;;;;;;;;15.45;49.73;101323.84;4100363;29;19949;-59
2023/12/26 07:20:36;;;;;;;;;;;;;;;15.43;49.59;101323.03;4100411;29;20304;-59
2023/12/26 07:22:38;;;;;;;;;;;;;;;15.43;49.64;101336.31;4100599;29;19936;-59
2023/12/26 07:24:40;;;;;;;;;;;;;;;15.43;49.65;101338.94;4100394;29;19929;-59
2023/12/26 07:26:41;;;;;;;;;;;;;;;15.41;49.85;101346.13;4100252;29;19933;-59
2023/12/26 07:28:43;;;;;;;;;;;;;;;15.43;49.95;101346.91;4100331;29;19922;-59
2023/12/26 07:30:44;;;;;;;;;;;;;;;15.44;49.73;101354.81;4099573;28;19939;-59
2023/12/26 07:32:46;;;;;;;;;;;;;;;15.42;49.62;101348.69;4100329;29;19923;-60
2023/12/26 07:34:49;;;;;;;;;;;;;;;15.43;49.86;101347.78;4100288;29;19922;-59
2023/12/26 07:36:51;;;;;;;;;;;;;;;15.43;49.59;101365.44;4082990;29;20025;-59
2023/12/26 07:38:52;;;;;;;;;;;;;;;15.42;49.82;101375.22;4099998;29;20009;-59
2023/12/26 07:40:54;;;;;;;;;;;;;;;15.44;49.43;101383.09;4083236;29;19938;-59
2023/12/26 07:42:57;;;;;;;;;;;;;;;15.44;49.78;101389.25;4099982;29;19923;-60
2023/12/26 07:44:58;;;;;;;;;;;;;;;15.43;49.79;101381.34;4099847;29;19948;-59
2023/12/26 07:47:00;;;;;;;;;;;;;;;15.42;49.83;101377.88;4099635;29;19923;-59
2023/12/26 07:49:02;;;;;;;;;;;;;;;15.43;49.46;101390.19;4099961;29;19929;-59
2023/12/26 07:51:04;;;;;;;;;;;;;;;15.43;49.74;101397.25;4099876;29;19981;-59
2023/12/26 07:53:05;;;;;;;;;;;;;;;15.43;49.62;101400.78;4099918;29;19922;-59
2023/12/26 07:55:07;;;;;;;;;;;;;;;15.44;49.57;101409.59;4099868;29;20441;-59
2023/12/26 07:57:08;;;;;;;;;;;;;;;15.44;49.66;101413.13;4100103;29;20318;-60
2023/12/26 07:59:10;;;;;;;;;;;;;;;15.45;49.65;101400.72;4099872;29;19922;-59
2023/12/26 08:01:12;;;;;;;;;;;;;;;15.44;49.82;101402.53;4099366;29;19926;-60
2023/12/26 08:03:15;;;;;;;;;;;;;;;15.44;49.75;101409.59;4099848;29;20333;-59
2023/12/26 08:05:17;;;;;;;;;;;;;;;15.44;49.85;101422.84;4099677;29;19922;-59
2023/12/26 08:07:19;;;;;;;;;;;;;;;15.43;49.94;101422.00;4099614;29;19926;-59
2023/12/26 08:09:20;;;;;;;;;;;;;;;15.44;50.07;101420.19;4099491;29;19928;-59
2023/12/26 08:11:22;;;;;;;;;;;;;;;15.44;50.03;101428.16;4099726;29;20017;-59
2023/12/26 08:13:24;;;;;;;;;;;;;;;15.44;49.93;101430.78;4099497;28;19930;-59
2023/12/26 08:15:25;;;;;;;;;;;;;;;15.44;49.74;101436.97;4099359;29;19923;-59
2023/12/26 08:17:27;;;;;;;;;;;;;;;15.44;49.73;101444.06;4099527;29;20315;-59
2023/12/26 08:19:29;;;;;;;;;;;;;;;15.44;50.08;101444.94;4099488;29;19972;-59
2023/12/26 08:21:31;;;;;;;;;;;;;;;15.44;49.99;101444.06;4099621;29;20313;-59
2023/12/26 08:23:35;;;;;;;;;;;;;;;15.44;49.59;101449.34;4099570;29;19930;-59
2023/12/26 08:25:37;;;;;;;;;;;;;;;15.44;49.82;101446.69;4099427;29;19969;-59
2023/12/26 08:27:40;;;;;;;;;;;;;;;15.42;49.81;101454.72;4099653;29;19926;-58
2023/12/26 08:29:42;;;;;;;;;;;;;;;15.42;50.09;101461.81;4099095;29;19969;-59
2023/12/26 08:31:43;;;;;;;;;;;;;;;15.42;49.89;101461.81;4099618;29;19923;-58
2023/12/26 08:33:45;;;;;;;;;;;;;;;15.41;50.12;101463.59;4099401;29;19923;-59
2023/12/26 08:35:48;;;;;;;;;;;;;;;15.43;49.99;101474.13;4099546;29;19982;-58
2023/12/26 08:37:50;;;;;;;;;;;;;;;15.41;49.87;101471.56;4099438;29;19929;-59
2023/12/26 08:39:51;;;;;;;;;;;;;;;15.41;50.11;101468.91;4099224;29;20025;-58
2023/12/26 08:41:53;;;;;;;;;;;;;;;15.42;49.88;101477.72;4098802;29;19922;-58
2023/12/26 08:43:55;;;;;;;;;;;;;;;15.42;49.73;101472.41;4099063;29;19922;-58
2023/12/26 08:45:56;;;;;;;;;;;;;;;15.42;49.90;101467.09;4099470;29;19945;-58
2023/12/26 08:47:59;;;;;;;;;;;;;;;15.43;49.99;101463.53;4099546;29;19937;-58
2023/12/26 08:50:00;;;;;;;;;;;;;;;15.42;50.01;101467.09;4099319;29;19956;-59
2023/12/26 08:52:02;;;;;;;;;;;;;;;15.41;49.95;101460.97;4099142;29;19929;-59
2023/12/26 08:54:04;;;;;;;;;;;;;;;15.42;50.34;101467.97;4099217;29;20318;-58
2023/12/26 08:56:05;;;;;;;;;;;;;;;15.41;50.21;101471.56;4099283;29;19922;-59
2023/12/26 08:58:08;;;;;;;;;;;;;;;15.42;49.97;101475.94;4098817;29;20416;-58
2023/12/26 09:00:12;;;;;;;;;;;;;;;15.43;50.29;101482.97;4099184;29;20309;-59
2023/12/26 09:02:16;;;;;;;;;;;;;;;15.44;50.10;101486.47;4098935;29;19929;-59
2023/12/26 09:04:17;;;;;;;;;;;;;;;15.43;50.01;101490.03;4098943;29;19930;-60
2023/12/26 09:06:19;;;;;;;;;;;;;;;15.43;50.31;101501.53;4099235;29;19926;-59
2023/12/26 09:08:21;;;;;;;;;;;;;;;15.42;50.03;101505.09;4099250;29;20014;-59
2023/12/26 09:10:22;;;;;;;;;;;;;;;15.44;50.09;101510.31;4099083;29;19922;-58
2023/12/26 09:12:24;;;;;;;;;;;;;;;15.44;50.01;101523.56;4098889;28;19923;-58
2023/12/26 09:14:25;;;;;;;;;;;;;;;15.42;50.24;101523.66;4099107;29;19923;-58
2023/12/26 09:16:27;;;;;;;;;;;;;;;15.41;49.98;101526.38;4099333;29;19923;-59
2023/12/26 09:18:29;;;;;;;;;;;;;;;15.41;50.26;101526.38;4099083;29;19934;-58
2023/12/26 09:20:31;;;;;;;;;;;;;;;15.42;50.18;101534.25;4099141;29;20385;-59
2023/12/26 09:22:32;;;;;;;;;;;;;;;15.42;50.01;101544.84;4099107;29;20008;-58
2023/12/26 09:24:34;;;;;;;;;;;;;;;15.42;50.08;101552.81;4098821;29;19954;-59
2023/12/26 09:26:35;;;;;;;;;;;;;;;15.41;50.22;101551.09;4098815;29;19969;-58
2023/12/26 09:28:37;;;;;;;;;;;;;;;15.41;50.08;101543.13;4082033;29;19923;-58
2023/12/26 09:30:39;;;;;;;;;;;;;;;15.41;50.26;101547.59;4098878;29;19962;-58
2023/12/26 09:32:40;;;;;;;;;;;;;;;15.41;50.52;101553.72;4099099;29;19922;-59
2023/12/26 09:34:42;;;;;;;;;;;;;;;15.41;50.23;101553.72;4099095;29;19928;-60
2023/12/26 09:36:44;;;;;;;;;;;;;;;15.41;50.30;101558.19;4098938;29;19922;-58
2023/12/26 09:38:46;;;;;;;;;;;;;;;15.42;50.43;101555.47;4099197;29;19926;-60
2023/12/26 09:40:47;;;;;;;;;;;;;;;15.40;50.36;101554.66;4098969;29;19997;-58
2023/12/26 09:42:49;;;;;;;;;;;;;;;15.41;50.51;101564.34;4098656;29;19976;-57
2023/12/26 09:44:52;;;;;;;;;;;;;;;15.43;50.14;101572.22;4098866;29;19942;-60
2023/12/26 09:46:53;;;;;;;;;;;;;;;15.43;50.25;101578.41;4099019;29;19922;-59
2023/12/26 09:48:55;;;;;;;;;;;;;;;15.44;50.55;101592.50;4098982;29;20258;-60
2023/12/26 09:50:58;;;;;;;;;;;;;;;15.43;50.31;101586.34;4099027;29;19922;-59
2023/12/26 09:53:00;;;;;;;;;;;;;;;15.43;50.40;101581.03;4081791;29;19975;-59
2023/12/26 09:55:03;;;;;;;;;;;;;;;15.41;50.35;101587.34;4101527;29;20010;-58
2023/12/26 09:57:07;;;;;;;;;;;;;;;15.42;50.41;101589.91;4101415;29;19923;-59
2023/12/26 09:59:09;;;;;;;;;;;;;;;15.42;50.65;101584.63;4101784;29;20349;-59
2023/12/26 10:01:11;;;;;;;;;;;;;;;15.43;50.66;101591.66;4101627;29;19922;-59
2023/12/26 10:03:13;;;;;;;;;;;;;;;15.43;50.69;101601.38;4101617;29;19930;-59
2023/12/26 10:05:15;;;;;;;;;;;;;;;15.42;50.69;101604.94;4101595;29;20270;-59
2023/12/26 10:07:18;;;;;;;;;;;;;;;15.44;50.48;101614.59;4101650;29;19922;-60
2023/12/26 10:09:20;;;;;;;;;;;;;;;15.42;50.43;101615.56;4101546;29;19933;-59
2023/12/26 10:11:21;;;;;;;;;;;;;;;15.44;50.50;101616.34;4101222;29;20001;-59
2023/12/26 10:13:23;;;;;;;;;;;;;;;15.42;50.49;101623.50;4101298;28;19962;-59
2023/12/26 10:15:26;;;;;;;;;;;;;;;15.43;50.30;101617.28;4101395;29;19923;-59
2023/12/26 10:17:28;;;;;;;;;;;;;;;15.44;50.48;101616.34;4101515;29;19926;-59
2023/12/26 10:19:29;;;;;;;;;;;;;;;15.43;50.30;101628.75;4101578;29;20046;-59
2023/12/26 10:21:31;;;;;;;;;;;;;;;15.43;50.69;101631.41;4101444;29;19922;-59
2023/12/26 10:23:34;;;;;;;;;;;;;;;15.43;50.68;101620.81;4101222;29;20378;-59
2023/12/26 10:25:35;;;;;;;;;;;;;;;15.43;50.57;101617.28;4100737;29;20305;-59